Terminal Aerodrome Forecast
Issued by NWS

Home | Current Version | Previous Version | Text Only | Print | Product List | Glossary On
Versions: 1 2 3 4 5 6 7 8 9 10 11 12 13 14 15 16 17 18 19 20 21 22 23 24 25 26 27 28 29 30 31 32
850
FTUS41 KOKX 251445 AAB
TAFSWF
TAF AMD
KSWF 251445Z 2515/2618 09009KT 2SM RA BR OVC008
     FM251800 09006KT 3SM -RA BR OVC008
     FM252000 VRB03KT 4SM BR VCSH OVC008
     FM252200 00000KT 4SM BR OVC040
     FM260300 00000KT 4SM BR BKN080
     FM260700 00000KT P6SM BKN250
     FM261700 29010KT P6SM FEW250
      AMD NOT SKED=

USA.gov is the U.S. government's official web portal to all federal, state and local government web resources and services.